createdAt,value
2017-07-21T00:00:12.853Z,96512.56
2017-07-21T00:02:38.768Z,96522.53
2017-07-21T00:05:04.613Z,96524.66
2017-07-21T00:07:30.445Z,96530.22
2017-07-21T00:09:56.260Z,96522.12
2017-07-21T00:12:22.077Z,96521.61
2017-07-21T00:14:47.912Z,96526.37
2017-07-21T00:17:13.762Z,96527.00
2017-07-21T00:19:39.693Z,96521.94
2017-07-21T00:22:05.514Z,96521.63
2017-07-21T00:24:31.388Z,96518.66
2017-07-21T00:26:57.233Z,96520.45
2017-07-21T00:29:23.044Z,96519.91
2017-07-21T00:31:48.883Z,96516.23
2017-07-21T00:34:14.700Z,96519.21
2017-07-21T00:36:40.507Z,96512.84
2017-07-21T00:39:06.361Z,96517.69
2017-07-21T00:41:32.255Z,96516.36
2017-07-21T00:43:58.899Z,96514.62
2017-07-21T00:46:24.832Z,96494.09
2017-07-21T00:48:50.744Z,96520.70
2017-07-21T00:51:16.627Z,96521.02
2017-07-21T00:53:42.473Z,96515.98
2017-07-21T00:56:08.285Z,96516.19
2017-07-21T00:58:34.081Z,96508.00
2017-07-21T01:00:59.898Z,96513.48
2017-07-21T01:03:25.802Z,96516.77
2017-07-21T01:05:51.674Z,96514.47
2017-07-21T01:08:17.500Z,96512.85
2017-07-21T01:10:43.374Z,96498.76
2017-07-21T01:13:09.226Z,96508.02
2017-07-21T01:15:35.045Z,96504.26
2017-07-21T01:18:00.873Z,96504.22
2017-07-21T01:20:33.469Z,96499.50
2017-07-21T01:22:59.367Z,96504.08
2017-07-21T01:25:25.190Z,96503.97
2017-07-21T01:27:51.053Z,96507.94
2017-07-21T01:30:16.953Z,96506.80
2017-07-21T01:32:42.850Z,96501.75
2017-07-21T01:35:09.009Z,96501.38
2017-07-21T01:37:34.873Z,96498.33
2017-07-21T01:40:00.723Z,96492.02
2017-07-21T01:42:26.567Z,96493.63
2017-07-21T01:44:53.470Z,96492.83
2017-07-21T01:47:19.323Z,96491.12
2017-07-21T01:49:45.220Z,96491.84
2017-07-21T01:52:11.039Z,96492.88
2017-07-21T01:54:36.876Z,96471.08
2017-07-21T01:57:02.729Z,96489.91
2017-07-21T01:59:28.632Z,96483.66
2017-07-21T02:01:54.497Z,96481.86
2017-07-21T02:04:20.335Z,96475.56
2017-07-21T02:06:46.180Z,96449.00
2017-07-21T02:09:12.058Z,96477.27
2017-07-21T02:11:37.893Z,96471.67
2017-07-21T02:14:03.692Z,96474.55
2017-07-21T02:16:29.736Z,96474.47
2017-07-21T02:18:55.647Z,96477.18
2017-07-21T02:21:21.514Z,96481.22
2017-07-21T02:23:47.393Z,96364.28
2017-07-21T02:26:13.197Z,96485.40
2017-07-21T02:28:39.064Z,96485.01
2017-07-21T02:31:04.984Z,96475.40
2017-07-21T02:33:30.811Z,96480.31
2017-07-21T02:35:56.690Z,96478.14
2017-07-21T02:38:22.560Z,96480.17
2017-07-21T02:40:48.438Z,96485.22
2017-07-21T02:43:14.279Z,96468.91
2017-07-21T02:45:40.161Z,96442.94
2017-07-21T02:48:06.046Z,96482.09
2017-07-21T02:50:31.917Z,96488.34
2017-07-21T02:52:57.742Z,96522.15
2017-07-21T02:55:23.567Z,96441.05
2017-07-21T02:57:49.401Z,96470.52
2017-07-21T03:00:15.253Z,96486.25
2017-07-21T03:02:41.085Z,96481.94
2017-07-21T03:05:06.902Z,96488.03
2017-07-21T03:07:32.770Z,96492.70
2017-07-21T03:09:58.694Z,96487.34
2017-07-21T03:12:24.579Z,96464.05
2017-07-21T03:14:50.396Z,96483.45
2017-07-21T03:17:16.218Z,96487.37
2017-07-21T03:19:42.049Z,96487.00
2017-07-21T03:22:07.980Z,96487.23
2017-07-21T03:24:33.818Z,96486.95
2017-07-21T03:26:59.680Z,96445.41
2017-07-21T03:29:25.498Z,96488.31
2017-07-21T03:31:51.328Z,96493.36
2017-07-21T03:34:17.376Z,96490.16
2017-07-21T03:36:43.288Z,96490.51
2017-07-21T03:39:09.155Z,96490.47
2017-07-21T03:41:35.007Z,96493.59
2017-07-21T03:44:01.038Z,96496.14
2017-07-21T03:46:27.033Z,96501.45
2017-07-21T03:48:52.868Z,96463.53
2017-07-21T03:51:18.645Z,96500.59
2017-07-21T03:53:44.465Z,96486.83
2017-07-21T03:56:10.305Z,96499.03
2017-07-21T03:58:36.088Z,96495.38
2017-07-21T04:01:01.892Z,96503.19
2017-07-21T04:03:27.780Z,96501.34
2017-07-21T04:05:53.588Z,96482.70
2017-07-21T04:08:19.440Z,96505.30
2017-07-21T04:10:45.284Z,96508.34
2017-07-21T04:13:11.153Z,96511.02
2017-07-21T04:15:37.028Z,96505.84
2017-07-21T04:18:02.875Z,96505.20
2017-07-21T04:20:28.677Z,96492.91
2017-07-21T04:22:54.505Z,96492.59
2017-07-21T04:25:20.320Z,96489.85
2017-07-21T04:27:46.117Z,96501.66
2017-07-21T04:30:11.986Z,96497.95
2017-07-21T04:32:37.808Z,96498.20
2017-07-21T04:35:03.668Z,96498.69
2017-07-21T04:37:29.545Z,96501.50
2017-07-21T04:39:55.501Z,96507.05
2017-07-21T04:42:21.545Z,96500.71
2017-07-21T04:44:47.417Z,96493.56
2017-07-21T04:47:13.305Z,96487.52
2017-07-21T04:49:39.136Z,96487.84
2017-07-21T04:52:04.929Z,96488.51
2017-07-21T04:54:30.720Z,96496.08
2017-07-21T04:56:57.565Z,96484.69
2017-07-21T04:59:23.352Z,96489.50
2017-07-21T05:01:49.183Z,96491.66
2017-07-21T05:04:15.052Z,96464.65
2017-07-21T05:06:40.836Z,96495.06
2017-07-21T05:09:06.745Z,96476.11
2017-07-21T05:11:32.595Z,96497.25
2017-07-21T05:13:58.479Z,96491.48
2017-07-21T05:16:24.288Z,96495.43
2017-07-21T05:18:50.253Z,96491.60
2017-07-21T05:21:16.537Z,96496.34
2017-07-21T05:23:42.393Z,96477.16
2017-07-21T05:26:08.265Z,96502.25
2017-07-21T05:28:35.644Z,96503.53
2017-07-21T05:31:02.548Z,96489.43
2017-07-21T05:33:29.136Z,96496.11
2017-07-21T05:35:55.025Z,96483.40
2017-07-21T05:38:20.851Z,96497.83
2017-07-21T05:40:46.664Z,96501.16
2017-07-21T05:43:13.214Z,96493.72
2017-07-21T05:45:39.021Z,96505.22
2017-07-21T05:48:06.728Z,96498.16
2017-07-21T05:50:32.673Z,96501.02
2017-07-21T05:52:58.517Z,96509.13
2017-07-21T05:55:25.186Z,96516.73
2017-07-21T05:57:51.065Z,96511.01
2017-07-21T06:00:16.940Z,96514.98
2017-07-21T06:02:42.913Z,96507.97
2017-07-21T06:05:09.269Z,96496.23
2017-07-21T06:07:35.132Z,96508.25
2017-07-21T06:10:00.941Z,96513.14
2017-07-21T06:12:27.360Z,96509.55
2017-07-21T06:14:54.003Z,96505.81
2017-07-21T06:17:19.837Z,96510.39
2017-07-21T06:19:46.409Z,96513.39
2017-07-21T06:22:12.265Z,96516.50
2017-07-21T06:24:38.176Z,96496.39
2017-07-21T06:27:03.960Z,96511.91
2017-07-21T06:29:29.757Z,96520.08
2017-07-21T06:31:55.557Z,96522.85
2017-07-21T06:34:21.351Z,96519.74
2017-07-21T06:36:47.234Z,96515.28
2017-07-21T06:39:14.049Z,96517.61
2017-07-21T06:41:39.845Z,96518.64
2017-07-21T06:44:06.448Z,96504.25
2017-07-21T06:46:39.150Z,96520.53
2017-07-21T06:49:06.526Z,96521.70
2017-07-21T06:51:33.168Z,96497.42
2017-07-21T06:54:00.561Z,96528.73
2017-07-21T06:56:26.489Z,96508.95
2017-07-21T06:58:52.314Z,96533.43
2017-07-21T07:01:18.161Z,96530.52
2017-07-21T07:03:44.683Z,96524.39
2017-07-21T07:06:10.524Z,96526.23
2017-07-21T07:08:36.393Z,96525.78
2017-07-21T07:11:02.213Z,96526.63
2017-07-21T07:13:28.048Z,96524.77
2017-07-21T07:15:53.924Z,96523.05
2017-07-21T07:18:19.905Z,96526.14
2017-07-21T07:20:45.831Z,96523.74
2017-07-21T07:23:11.640Z,96525.45
2017-07-21T07:25:37.483Z,96526.91
2017-07-21T07:28:03.301Z,96520.02
2017-07-21T07:30:29.124Z,96537.05
2017-07-21T07:32:55.055Z,96533.73
2017-07-21T07:35:20.939Z,96535.23
2017-07-21T07:37:46.856Z,96533.22
2017-07-21T07:40:12.869Z,96536.78
2017-07-21T07:42:38.791Z,96522.67
2017-07-21T07:45:04.686Z,96514.66
2017-07-21T07:47:30.540Z,96517.48
2017-07-21T07:49:56.337Z,96521.00
2017-07-21T07:52:22.159Z,96512.11
2017-07-21T07:54:47.994Z,96516.59
2017-07-21T07:57:14.026Z,96525.31
2017-07-21T07:59:39.880Z,96526.27
2017-07-21T08:02:05.783Z,96520.14
2017-07-21T08:04:31.793Z,96529.36
2017-07-21T08:06:57.704Z,96521.67
2017-07-21T08:09:23.733Z,96517.30
2017-07-21T08:11:49.653Z,96518.58
2017-07-21T08:14:15.583Z,96496.34
2017-07-21T08:16:41.593Z,96514.62
2017-07-21T08:19:07.412Z,96511.20
2017-07-21T08:21:33.228Z,96515.12
2017-07-21T08:23:59.032Z,96517.02
2017-07-21T08:26:24.881Z,96510.01
2017-07-21T08:28:50.799Z,96509.18
2017-07-21T08:31:16.628Z,96512.08
2017-07-21T08:33:42.447Z,96509.59
2017-07-21T08:36:08.310Z,96502.21
2017-07-21T08:38:34.172Z,96502.77
2017-07-21T08:41:00.015Z,96499.67
2017-07-21T08:43:26.037Z,96496.19
2017-07-21T08:45:51.951Z,96494.56
2017-07-21T08:48:17.777Z,96492.50
2017-07-21T08:50:43.674Z,96493.22
2017-07-21T08:53:09.501Z,96486.28
2017-07-21T08:55:35.396Z,96490.13
2017-07-21T08:58:01.255Z,96487.44
2017-07-21T09:00:27.134Z,96457.81
2017-07-21T09:02:52.979Z,96479.82
2017-07-21T09:05:19.013Z,96471.78
2017-07-21T09:07:44.943Z,96474.22
2017-07-21T09:10:10.841Z,96465.17
2017-07-21T09:12:36.836Z,96468.03
2017-07-21T09:15:02.686Z,96456.41
2017-07-21T09:17:28.527Z,96457.28
2017-07-21T09:19:54.422Z,96459.15
2017-07-21T09:22:20.284Z,96449.97
2017-07-21T09:24:46.136Z,96462.50
2017-07-21T09:27:11.942Z,96448.40
2017-07-21T09:29:37.825Z,96445.09
2017-07-21T09:32:03.836Z,96452.25
2017-07-21T09:34:29.746Z,96439.67
2017-07-21T09:36:55.552Z,96444.28
2017-07-21T09:39:21.415Z,96445.30
2017-07-21T09:41:47.239Z,96437.17
2017-07-21T09:44:13.109Z,96431.33
2017-07-21T09:46:38.996Z,96433.88
2017-07-21T09:49:04.937Z,96434.00
2017-07-21T09:51:30.721Z,96425.50
2017-07-21T09:53:56.561Z,96424.09
2017-07-21T09:56:22.403Z,96430.59
2017-07-21T09:58:48.241Z,96431.66
2017-07-21T10:01:14.160Z,96431.20
2017-07-21T10:03:39.965Z,96424.81
2017-07-21T10:06:05.924Z,96429.62
2017-07-21T10:08:31.787Z,96426.47
2017-07-21T10:10:57.678Z,96426.91
2017-07-21T10:13:23.524Z,96421.56
2017-07-21T10:15:49.390Z,96424.27
2017-07-21T10:18:15.358Z,96427.15
2017-07-21T10:20:41.239Z,96418.62
2017-07-21T10:23:07.142Z,96418.19
2017-07-21T10:25:32.995Z,96411.10
2017-07-21T10:27:59.096Z,96419.23
2017-07-21T10:30:25.108Z,96411.67
2017-07-21T10:32:51.026Z,96407.62
2017-07-21T10:35:16.878Z,96405.89
2017-07-21T10:37:42.761Z,96395.28
2017-07-21T10:40:08.590Z,96384.48
2017-07-21T10:42:34.648Z,96388.80
2017-07-21T10:45:00.618Z,96389.02
2017-07-21T10:47:26.468Z,96393.21
2017-07-21T10:49:52.475Z,96368.38
2017-07-21T10:52:18.379Z,96386.25
2017-07-21T10:54:44.250Z,96359.05
2017-07-21T10:57:10.043Z,96386.24
2017-07-21T10:59:35.844Z,96379.45
2017-07-21T11:02:01.716Z,96367.16
2017-07-21T11:04:27.529Z,96368.62
2017-07-21T11:06:53.333Z,96371.05
2017-07-21T11:09:19.380Z,96357.20
2017-07-21T11:11:45.204Z,96354.77
2017-07-21T11:14:11.273Z,96353.92
2017-07-21T11:16:37.115Z,96354.14
2017-07-21T11:19:03.047Z,96354.04
2017-07-21T11:21:28.870Z,96341.84
2017-07-21T11:23:54.703Z,96338.66
2017-07-21T11:26:20.549Z,96338.61
2017-07-21T11:28:46.372Z,96335.23
2017-07-21T11:31:12.179Z,96334.52
2017-07-21T11:33:37.999Z,96335.41
2017-07-21T11:36:04.839Z,96333.09
2017-07-21T11:38:30.690Z,96333.34
2017-07-21T11:40:56.693Z,96328.42
2017-07-21T11:43:22.562Z,96331.81
2017-07-21T11:45:48.540Z,96327.14
2017-07-21T11:48:14.382Z,96319.14
2017-07-21T11:50:40.321Z,96332.34
2017-07-21T11:53:06.147Z,96325.88
2017-07-21T11:55:32.014Z,96321.73
2017-07-21T11:57:57.874Z,96321.27
2017-07-21T12:00:23.759Z,96309.06
2017-07-21T12:02:49.641Z,96321.66
2017-07-21T12:05:15.498Z,96321.95
2017-07-21T12:07:41.312Z,96318.63
2017-07-21T12:10:07.399Z,96313.70
2017-07-21T12:12:33.266Z,96311.35
2017-07-21T12:14:59.127Z,96297.73
2017-07-21T12:17:24.994Z,96310.92
2017-07-21T12:19:50.822Z,96309.44
2017-07-21T12:22:16.675Z,96309.23
2017-07-21T12:24:43.232Z,96301.34
2017-07-21T12:27:09.102Z,96307.91
2017-07-21T12:29:35.021Z,96282.48
2017-07-21T12:32:00.922Z,96301.94
2017-07-21T12:34:26.786Z,96292.56
2017-07-21T12:36:52.691Z,96290.56
2017-07-21T12:39:18.611Z,96291.13
2017-07-21T12:41:44.564Z,96284.84
2017-07-21T12:44:10.363Z,96282.66
2017-07-21T12:46:36.251Z,96285.08
2017-07-21T12:49:02.135Z,96277.80
2017-07-21T12:51:27.980Z,96239.80
2017-07-21T12:53:53.849Z,96277.05
2017-07-21T12:56:19.705Z,96273.02
2017-07-21T12:58:45.605Z,96281.20
2017-07-21T13:01:11.444Z,96284.22
2017-07-21T13:03:37.338Z,96282.29
2017-07-21T13:06:03.186Z,96255.23
2017-07-21T13:08:29.071Z,96271.11
2017-07-21T13:10:54.967Z,96261.00
2017-07-21T13:13:20.826Z,96256.03
2017-07-21T13:15:46.716Z,96247.11
2017-07-21T13:18:12.628Z,96245.22
2017-07-21T13:23:04.392Z,96240.62
2017-07-21T13:25:30.304Z,96232.46
2017-07-21T13:27:56.172Z,96207.03
2017-07-21T13:30:22.051Z,96222.89
2017-07-21T13:32:47.989Z,96228.73
2017-07-21T13:35:13.801Z,96222.09
2017-07-21T13:37:39.741Z,96215.27
2017-07-21T13:40:05.683Z,96210.48
2017-07-21T13:42:31.538Z,96206.77
2017-07-21T13:44:57.573Z,96196.77
2017-07-21T13:47:23.467Z,96196.38
2017-07-21T13:49:49.383Z,96201.59
2017-07-21T13:52:15.532Z,96186.62
2017-07-21T13:54:41.393Z,96187.55
2017-07-21T13:57:07.211Z,96186.02
2017-07-21T13:59:33.852Z,96182.98
2017-07-21T14:01:59.697Z,96176.14
2017-07-21T14:04:25.685Z,96181.52
2017-07-21T14:06:51.505Z,96178.53
2017-07-21T14:09:17.339Z,96173.20
2017-07-21T14:11:43.216Z,96167.52
2017-07-21T14:14:09.143Z,96152.85
2017-07-21T14:16:34.989Z,96166.09
2017-07-21T14:19:00.808Z,96162.77
2017-07-21T14:21:26.696Z,96157.36
2017-07-21T14:23:52.605Z,96159.07
2017-07-21T14:26:18.447Z,96151.59
2017-07-21T14:28:44.869Z,96147.79
2017-07-21T14:31:10.760Z,96148.00
2017-07-21T14:33:36.606Z,96137.83
2017-07-21T14:36:02.574Z,96136.84
2017-07-21T14:38:28.438Z,96142.72
2017-07-21T14:40:54.394Z,96143.70
2017-07-21T14:43:20.234Z,96137.42
2017-07-21T14:45:46.049Z,96129.84
2017-07-21T14:48:11.916Z,96128.92
2017-07-21T14:50:37.948Z,96130.67
2017-07-21T14:53:03.924Z,96119.09
2017-07-21T14:55:29.791Z,96115.61
2017-07-21T14:57:55.737Z,96110.29
2017-07-21T15:00:21.602Z,96117.89
2017-07-21T15:02:47.649Z,96102.19
2017-07-21T15:05:13.645Z,96108.52
2017-07-21T15:07:39.522Z,96101.80
2017-07-21T15:10:05.410Z,96102.54
2017-07-21T15:12:31.505Z,96077.27
2017-07-21T15:14:57.405Z,96100.92
2017-07-21T15:17:23.269Z,96098.75
2017-07-21T15:19:49.116Z,96094.22
2017-07-21T15:22:15.042Z,96094.50
2017-07-21T15:24:41.033Z,96093.42
2017-07-21T15:27:06.976Z,96082.39
2017-07-21T15:29:32.844Z,96051.88
2017-07-21T15:31:58.662Z,96069.22
2017-07-21T15:34:24.492Z,96067.25
2017-07-21T15:36:50.342Z,96065.00
2017-07-21T15:39:16.251Z,96058.92
2017-07-21T15:41:43.242Z,96054.50
2017-07-21T15:44:09.227Z,96044.22
2017-07-21T15:46:35.297Z,96038.28
2017-07-21T15:49:01.163Z,96029.52
2017-07-21T15:51:27.079Z,96024.61
2017-07-21T15:53:53.133Z,96023.95
2017-07-21T15:56:19.119Z,96021.41
2017-07-21T15:58:44.987Z,96015.55
2017-07-21T16:01:10.883Z,96014.06
2017-07-21T16:03:36.755Z,96017.59
2017-07-21T16:06:02.581Z,96026.00
2017-07-21T16:08:28.394Z,96026.11
2017-07-21T16:10:54.285Z,96027.02
2017-07-21T16:13:20.156Z,96018.02
2017-07-21T16:15:45.993Z,96016.64
2017-07-21T16:18:11.843Z,96022.64
2017-07-21T16:20:37.652Z,96021.46
2017-07-21T16:23:03.494Z,96019.06
2017-07-21T16:25:29.908Z,96023.12
2017-07-21T16:27:55.716Z,96032.01
2017-07-21T16:30:21.545Z,96026.09
2017-07-21T16:32:47.457Z,96020.08
2017-07-21T16:35:13.452Z,96026.85
2017-07-21T16:37:39.389Z,96026.46
2017-07-21T16:40:05.248Z,96036.59
2017-07-21T16:42:31.086Z,96022.34
2017-07-21T16:44:57.498Z,96025.22
2017-07-21T16:47:23.328Z,96029.59
2017-07-21T16:49:49.146Z,96031.73
2017-07-21T16:52:15.067Z,96032.48
2017-07-21T16:54:40.925Z,96026.97
2017-07-21T16:57:06.776Z,96012.06
2017-07-21T16:59:32.617Z,96029.48
2017-07-21T17:01:58.685Z,96031.81
2017-07-21T17:04:24.648Z,96027.61
2017-07-21T17:06:50.545Z,96020.00
2017-07-21T17:09:16.454Z,96015.63
2017-07-21T17:11:42.299Z,95993.70
2017-07-21T17:14:08.181Z,96009.86
2017-07-21T17:16:34.177Z,96018.97
2017-07-21T17:18:59.987Z,96022.95
2017-07-21T17:21:25.802Z,96022.13
2017-07-21T17:23:51.699Z,96023.16
2017-07-21T17:26:17.580Z,96017.58
2017-07-21T17:28:43.414Z,96006.27
2017-07-21T17:31:09.283Z,96011.49
2017-07-21T17:33:35.095Z,96009.97
2017-07-21T17:36:00.972Z,96004.19
2017-07-21T17:38:26.921Z,96002.83
2017-07-21T17:40:52.763Z,96008.42
2017-07-21T17:43:18.627Z,96004.81
2017-07-21T17:45:44.551Z,96003.09
2017-07-21T17:48:10.481Z,96006.11
2017-07-21T17:50:36.415Z,96008.30
2017-07-21T17:53:02.314Z,96016.72
2017-07-21T17:55:28.282Z,96020.30
2017-07-21T17:57:54.159Z,96021.98
2017-07-21T18:00:20.153Z,96033.28
2017-07-21T18:02:46.217Z,96033.56
2017-07-21T18:05:12.087Z,96047.86
2017-07-21T18:07:37.955Z,96053.69
2017-07-21T18:10:03.830Z,96050.11
2017-07-21T18:12:29.676Z,96052.66
2017-07-21T18:14:55.703Z,96056.05
2017-07-21T18:17:21.636Z,96040.45
2017-07-21T18:19:47.521Z,96018.38
2017-07-21T18:22:13.395Z,96017.13
2017-07-21T18:24:39.346Z,96016.51
2017-07-21T18:27:05.223Z,96038.14
2017-07-21T18:29:31.127Z,96050.16
2017-07-21T18:31:57.032Z,96055.38
2017-07-21T18:34:22.888Z,96054.31
2017-07-21T18:36:48.833Z,96050.31
2017-07-21T18:39:14.693Z,96044.31
2017-07-21T18:41:40.568Z,96038.75
2017-07-21T18:44:06.461Z,96025.80
2017-07-21T18:46:32.348Z,96022.66
2017-07-21T18:48:58.197Z,96030.69
2017-07-21T18:51:24.157Z,96041.79
2017-07-21T18:53:50.026Z,96057.33
2017-07-21T18:56:15.997Z,96058.05
2017-07-21T18:58:41.861Z,96073.98
2017-07-21T19:01:07.924Z,96103.14
2017-07-21T19:03:33.848Z,96145.03
2017-07-21T19:05:59.673Z,96118.69
2017-07-21T19:08:25.547Z,96054.41
2017-07-21T19:10:51.504Z,96183.62
2017-07-21T19:13:17.357Z,96158.80
2017-07-21T19:15:43.177Z,96185.70
2017-07-21T19:18:09.041Z,96234.00
2017-07-21T19:20:35.062Z,96203.80
2017-07-21T19:23:01.037Z,96207.09
2017-07-21T19:25:26.918Z,111942.92
2017-07-21T19:27:52.830Z,111942.92
2017-07-21T19:30:18.745Z,111942.92
2017-07-21T19:32:44.669Z,111942.92
2017-07-21T19:35:10.465Z,111942.92
2017-07-21T19:37:36.410Z,111942.92
2017-07-21T19:40:02.433Z,111942.92
2017-07-21T19:42:28.392Z,111942.92
2017-07-21T19:44:54.266Z,111942.92
2017-07-21T19:47:20.267Z,111942.92
2017-07-21T19:49:46.132Z,111942.92
2017-07-21T19:52:12.136Z,111942.92
2017-07-21T19:54:43.064Z,111942.92
2017-07-21T19:57:08.895Z,111942.92
2017-07-21T19:59:34.842Z,111942.92
2017-07-21T20:02:02.495Z,111942.92
2017-07-21T20:04:30.436Z,111942.92
2017-07-21T20:06:56.248Z,111942.92
2017-07-21T20:09:22.076Z,111942.92
2017-07-21T20:11:48.019Z,111942.92
2017-07-21T20:14:13.840Z,111942.92
2017-07-21T20:16:39.702Z,111942.92
2017-07-21T20:19:05.550Z,111942.92
2017-07-21T20:21:33.435Z,111942.92
2017-07-21T20:23:59.385Z,111942.92
2017-07-21T20:26:27.200Z,111942.92
2017-07-21T20:28:53.076Z,111942.92
2017-07-21T20:31:18.902Z,111942.92
2017-07-21T20:33:44.736Z,111942.92
2017-07-21T20:36:10.585Z,111942.92
2017-07-21T20:38:36.571Z,111942.92
2017-07-21T20:41:02.417Z,111942.92
2017-07-21T20:43:28.246Z,111942.92
2017-07-21T20:45:54.196Z,111942.92
2017-07-21T20:48:20.048Z,111942.92
2017-07-21T20:50:45.908Z,111942.92
2017-07-21T20:53:11.838Z,111942.92
2017-07-21T20:55:37.651Z,111942.92
2017-07-21T20:58:03.525Z,111942.92
2017-07-21T21:00:29.365Z,111942.92
2017-07-21T21:02:55.157Z,111942.92
2017-07-21T21:05:21.057Z,111942.92
2017-07-21T21:07:46.929Z,111942.92
2017-07-21T21:10:12.845Z,111942.92
2017-07-21T21:12:38.738Z,111942.92
2017-07-21T21:15:04.582Z,111942.92
2017-07-21T21:17:30.519Z,111942.92
2017-07-21T21:19:56.368Z,111942.92
2017-07-21T21:22:22.257Z,111942.92
2017-07-21T21:24:48.941Z,111942.92
2017-07-21T21:27:14.736Z,111942.92
2017-07-21T21:29:40.563Z,111942.92
2017-07-21T21:32:06.540Z,111942.92
2017-07-21T21:34:32.409Z,111942.92
2017-07-21T21:36:58.223Z,111942.92
2017-07-21T21:39:24.068Z,111942.92
2017-07-21T21:41:49.849Z,111942.92
2017-07-21T21:44:15.671Z,111942.92
2017-07-21T21:46:41.547Z,111942.92
2017-07-21T21:49:07.347Z,111942.92
2017-07-21T21:51:33.133Z,111942.92
2017-07-21T21:53:58.966Z,111942.92
2017-07-21T21:56:24.778Z,111942.92
2017-07-21T21:58:50.691Z,111942.92
2017-07-21T22:01:16.601Z,111942.92
2017-07-21T22:03:42.402Z,111942.92
2017-07-21T22:06:08.237Z,111942.92
2017-07-21T22:08:34.080Z,111942.92
2017-07-21T22:10:59.876Z,111942.92
2017-07-21T22:13:25.693Z,111942.92
2017-07-21T22:15:54.440Z,111942.92
2017-07-21T22:18:20.385Z,111942.92
2017-07-21T22:20:46.305Z,111942.92
2017-07-21T22:23:12.136Z,111942.92
2017-07-21T22:25:38.061Z,111942.92
2017-07-21T22:28:03.903Z,111942.92
2017-07-21T22:30:29.807Z,111942.92
2017-07-21T22:32:55.736Z,111942.92
2017-07-21T22:35:21.577Z,111942.92
2017-07-21T22:37:47.376Z,111942.92
2017-07-21T22:40:13.240Z,111942.92
2017-07-21T22:42:39.078Z,111942.92
2017-07-21T22:45:05.105Z,111942.92
2017-07-21T22:47:30.941Z,111942.92
2017-07-21T22:49:56.841Z,111942.92
2017-07-21T22:52:22.730Z,111942.92
2017-07-21T22:54:48.543Z,111942.92
2017-07-21T22:57:14.369Z,111942.92
2017-07-21T22:59:40.207Z,111942.92
2017-07-21T23:02:06.029Z,111942.92
2017-07-21T23:04:32.071Z,111942.92
2017-07-21T23:06:57.937Z,111942.92
2017-07-21T23:09:23.811Z,111942.92
2017-07-21T23:11:49.716Z,111942.92
2017-07-21T23:14:15.524Z,111942.92
2017-07-21T23:16:41.391Z,111942.92
2017-07-21T23:19:07.304Z,111942.92
2017-07-21T23:21:33.153Z,111942.92
2017-07-21T23:23:59.003Z,111942.92
2017-07-21T23:26:25.852Z,111942.92
2017-07-21T23:28:51.681Z,111942.92
2017-07-21T23:31:17.765Z,111942.92
2017-07-21T23:33:43.636Z,111942.92
2017-07-21T23:36:09.484Z,111942.92
2017-07-21T23:38:35.299Z,111942.92
2017-07-21T23:41:01.114Z,111942.92
2017-07-21T23:43:26.962Z,111942.92
2017-07-21T23:45:52.831Z,111942.92
2017-07-21T23:48:18.633Z,111942.92
2017-07-21T23:50:44.460Z,111942.92
2017-07-21T23:53:10.493Z,111942.92
2017-07-21T23:55:36.448Z,111942.92
2017-07-21T23:58:02.303Z,111942.92
